Time;durP1;ratioP1;P1;durP2;ratioP2;P2;SDS_P1;SDS_P2;PMS_P1;PMS_P2;Temp;Humidity;BMP_temperature;BMP_pressure;BME280_temperature;BME280_humidity;BME280_pressure;Samples;Min_cycle;Max_cycle;Signal;HPM_P1;HPM_P2
2023/01/28 00:01:23;;;;;;;;;;;;;;;;;;5050881;28;1480;-47
2023/01/28 00:03:51;;;;;;;;;;;;;;;;;;5033012;28;1896;-42
2023/01/28 00:06:18;;;;;;;;;;;;;;;;;;5050880;28;2000;-42
2023/01/28 00:08:45;;;;;;;;;;;;;;;;;;5051021;28;2155;-40
2023/01/28 00:11:13;;;;;;;;;;;;;;;;;;5050859;28;1983;-43
2023/01/28 00:13:41;;;;;;;;;;;;;;;;;;5050782;28;1842;-41
2023/01/28 00:16:08;;;;;;;;;;;;;;;;;;5050982;28;1908;-44
2023/01/28 00:18:36;;;;;;;;;;;;;;;;;;5050829;28;1441;-42
2023/01/28 00:21:05;;;;;;;;;;;;;;;;;;5050464;28;1864;-43
2023/01/28 00:23:36;;;;;;;;;;;;;;;;;;5050879;28;2123;-44
2023/01/28 00:26:05;;;;;;;;;;;;;;;;;;5050754;28;1536;-45
2023/01/28 00:28:32;;;;;;;;;;;;;;;;;;5050321;28;2026;-43
2023/01/28 00:31:05;;;;;;;;;;;;;;;;;;5050704;28;1904;-44
2023/01/28 00:33:32;;;;;;;;;;;;;;;;;;5050283;28;1953;-41
2023/01/28 00:36:00;;;;;;;;;;;;;;;;;;5050819;28;1283;-44
2023/01/28 00:38:27;;;;;;;;;;;;;;;;;;5050588;28;2023;-43
2023/01/28 00:40:55;;;;;;;;;;;;;;;;;;5050637;28;1687;-43
2023/01/28 00:43:22;;;;;;;;;;;;;;;;;;5050682;28;1811;-42
2023/01/28 00:45:51;;;;;;;;;;;;;;;;;;5049101;28;2158;-40
2023/01/28 00:48:18;;;;;;;;;;;;;;;;;;5050575;28;2123;-43
2023/01/28 00:50:45;;;;;;;;;;;;;;;;;;5050702;28;1907;-45
2023/01/28 00:53:13;;;;;;;;;;;;;;;;;;5048976;28;1965;-43
2023/01/28 00:55:40;;;;;;;;;;;;;;;;;;5050164;28;2030;-45
2023/01/28 00:58:07;;;;;;;;;;;;;;;;;;5052295;28;2150;-48
2023/01/28 01:00:34;;;;;;;;;;;;;;;;;;5053752;28;2040;-42
2023/01/28 01:03:02;;;;;;;;;;;;;;;;;;5053833;28;1967;-43
2023/01/28 01:05:29;;;;;;;;;;;;;;;;;;5053998;28;1956;-43
2023/01/28 01:07:56;;;;;;;;;;;;;;;;;;5053867;28;1600;-43
2023/01/28 01:10:23;;;;;;;;;;;;;;;;;;5053434;28;1981;-43
2023/01/28 01:12:51;;;;;;;;;;;;;;;;;;5053716;28;1660;-43
2023/01/28 01:15:18;;;;;;;;;;;;;;;;;;5052505;28;1711;-44
2023/01/28 01:17:47;;;;;;;;;;;;;;;;;;5052493;28;2373;-44
2023/01/28 01:20:16;;;;;;;;;;;;;;;;;;5053572;28;1491;-43
2023/01/28 01:22:43;;;;;;;;;;;;;;;;;;5053493;28;1867;-44
2023/01/28 01:25:12;;;;;;;;;;;;;;;;;;5052201;28;1952;-46
2023/01/28 01:27:40;;;;;;;;;;;;;;;;;;5053062;28;1894;-43
2023/01/28 01:30:08;;;;;;;;;;;;;;;;;;5053480;28;1883;-43
2023/01/28 01:32:35;;;;;;;;;;;;;;;;;;5035108;28;1980;-45
2023/01/28 01:35:05;;;;;;;;;;;;;;;;;;5053314;28;2249;-44
2023/01/28 01:37:33;;;;;;;;;;;;;;;;;;5053387;28;1841;-46
2023/01/28 01:40:02;;;;;;;;;;;;;;;;;;5053266;28;1608;-43
2023/01/28 01:42:29;;;;;;;;;;;;;;;;;;5052847;28;2193;-43
2023/01/28 01:45:04;;;;;;;;;;;;;;;;;;5053064;28;2033;-42
2023/01/28 01:47:31;;;;;;;;;;;;;;;;;;5053131;28;1585;-46
2023/01/28 01:50:00;;;;;;;;;;;;;;;;;;5052848;28;1507;-45
2023/01/28 01:52:30;;;;;;;;;;;;;;;;;;5053088;28;1978;-44
2023/01/28 01:55:00;;;;;;;;;;;;;;;;;;5052801;28;1684;-43
2023/01/28 01:57:31;;;;;;;;;;;;;;;;;;5053187;28;1860;-45
2023/01/28 02:00:04;;;;;;;;;;;;;;;;;;5052802;28;1709;-43
2023/01/28 02:02:43;;;;;;;;;;;;;;;;;;5052804;28;1752;-47
2023/01/28 02:05:11;;;;;;;;;;;;;;;;;;5034776;28;1760;-44
2023/01/28 02:07:40;;;;;;;;;;;;;;;;;;5052865;28;1781;-43
2023/01/28 02:10:08;;;;;;;;;;;;;;;;;;5034009;28;1927;-42
2023/01/28 02:12:36;;;;;;;;;;;;;;;;;;5052865;28;1995;-43
2023/01/28 02:15:23;;;;;;;;;;;;;;;;;;5052328;28;2095;-42
2023/01/28 02:17:50;;;;;;;;;;;;;;;;;;5034681;28;1842;-45
2023/01/28 02:20:20;;;;;;;;;;;;;;;;;;5034732;28;1900;-43
2023/01/28 02:23:14;;;;;;;;;;;;;;;;;;5052385;28;1662;-41
2023/01/28 02:25:56;;;;;;;;;;;;;;;;;;5032112;28;2002;-45
2023/01/28 02:28:33;;;;;;;;;;;;;;;;;;5048810;28;1658;-47
2023/01/28 02:31:18;;;;;;;;;;;;;;;;;;5051898;28;2082;-42
2023/01/28 02:33:53;;;;;;;;;;;;;;;;;;5051856;28;1439;-42
2023/01/28 02:36:24;;;;;;;;;;;;;;;;;;5034349;28;2194;-43
2023/01/28 02:38:52;;;;;;;;;;;;;;;;;;5034572;28;2061;-45
2023/01/28 02:41:31;;;;;;;;;;;;;;;;;;5052187;28;2295;-44
2023/01/28 02:44:01;;;;;;;;;;;;;;;;;;5034170;28;1309;-43
2023/01/28 02:49:20;;;;;;;;;;;;;;;;;;5051889;28;2094;-45
2023/01/28 02:52:06;;;;;;;;;;;;;;;;;;5033836;28;2321;-45
2023/01/28 02:54:37;;;;;;;;;;;;;;;;;;5033842;28;2073;-42
2023/01/28 02:57:14;;;;;;;;;;;;;;;;;;5033869;28;1613;-43
2023/01/28 02:59:48;;;;;;;;;;;;;;;;;;5051483;28;1767;-44
2023/01/28 03:02:34;;;;;;;;;;;;;;;;;;5051838;28;1852;-45
2023/01/28 03:05:10;;;;;;;;;;;;;;;;;;5033831;28;1868;-44
2023/01/28 03:07:38;;;;;;;;;;;;;;;;;;5051961;28;1767;-46
2023/01/28 03:10:07;;;;;;;;;;;;;;;;;;5051573;28;1823;-43
2023/01/28 03:38:32;;;;;;;;;;;;;;;;;;5013628;28;1770;-43
2023/01/28 03:41:01;;;;;;;;;;;;;;;;;;5013198;28;1727;-47
2023/01/28 03:43:30;;;;;;;;;;;;;;;;;;5013253;28;2282;-46
2023/01/28 03:45:58;;;;;;;;;;;;;;;;;;5013539;28;1684;-44
2023/01/28 03:48:27;;;;;;;;;;;;;;;;;;5013382;28;2212;-43
2023/01/28 03:50:55;;;;;;;;;;;;;;;;;;5013548;28;1519;-44
2023/01/28 03:53:24;;;;;;;;;;;;;;;;;;5013431;28;2030;-41
2023/01/28 03:55:55;;;;;;;;;;;;;;;;;;5013182;28;1830;-42
2023/01/28 03:58:51;;;;;;;;;;;;;;;;;;5013413;28;1257;-43
2023/01/28 04:01:14;;;;;;;;;;;;;;;;;;5013243;28;1878;-44
2023/01/28 04:03:42;;;;;;;;;;;;;;;;;;5013341;28;1727;-43
2023/01/28 04:06:13;;;;;;;;;;;;;;;;;;5012770;28;2067;-44
2023/01/28 04:08:59;;;;;;;;;;;;;;;;;;5031088;28;1917;-41
2023/01/28 04:11:45;;;;;;;;;;;;;;;;;;5030856;28;2555;-44
2023/01/28 04:14:17;;;;;;;;;;;;;;;;;;5013194;28;1676;-45
2023/01/28 04:16:53;;;;;;;;;;;;;;;;;;5013074;28;2150;-42
2023/01/28 04:19:23;;;;;;;;;;;;;;;;;;5013319;28;1977;-44
2023/01/28 04:21:53;;;;;;;;;;;;;;;;;;5030953;28;1839;-43
2023/01/28 04:24:22;;;;;;;;;;;;;;;;;;5013047;28;1952;-42
2023/01/28 04:26:49;;;;;;;;;;;;;;;;;;5027660;28;2304;-40
2023/01/28 04:29:18;;;;;;;;;;;;;;;;;;5049029;28;2134;-41
2023/01/28 04:31:45;;;;;;;;;;;;;;;;;;5049455;28;2180;-43
2023/01/28 04:34:33;;;;;;;;;;;;;;;;;;5053205;28;1351;-43
2023/01/28 04:37:25;;;;;;;;;;;;;;;;;;5053793;28;2278;-46
2023/01/28 04:40:12;;;;;;;;;;;;;;;;;;5053200;28;2280;-46
2023/01/28 04:42:52;;;;;;;;;;;;;;;;;;5053207;28;1929;-41
2023/01/28 04:45:43;;;;;;;;;;;;;;;;;;5034602;28;1375;-44
2023/01/28 04:48:20;;;;;;;;;;;;;;;;;;5054534;28;2091;-45
2023/01/28 04:51:03;;;;;;;;;;;;;;;;;;5053533;28;1888;-45
2023/01/28 04:53:39;;;;;;;;;;;;;;;;;;5052673;28;2379;-42
2023/01/28 04:56:22;;;;;;;;;;;;;;;;;;5052622;28;1898;-42
2023/01/28 04:58:50;;;;;;;;;;;;;;;;;;5054203;28;2353;-44
2023/01/28 05:01:17;;;;;;;;;;;;;;;;;;5054159;28;1613;-44
2023/01/28 05:03:44;;;;;;;;;;;;;;;;;;5052645;28;2188;-42
2023/01/28 05:06:20;;;;;;;;;;;;;;;;;;5052838;28;1594;-43
2023/01/28 05:08:49;;;;;;;;;;;;;;;;;;5052760;28;1620;-43
2023/01/28 05:11:17;;;;;;;;;;;;;;;;;;5052714;28;1688;-44
2023/01/28 05:13:47;;;;;;;;;;;;;;;;;;5052845;28;2285;-43
2023/01/28 05:16:16;;;;;;;;;;;;;;;;;;5052602;28;2297;-46
2023/01/28 05:18:46;;;;;;;;;;;;;;;;;;5052261;28;1794;-44
2023/01/28 05:21:17;;;;;;;;;;;;;;;;;;5068870;28;2396;-45
2023/01/28 05:23:50;;;;;;;;;;;;;;;;;;5053665;28;1219;-43
2023/01/28 05:26:17;;;;;;;;;;;;;;;;;;5052244;28;1919;-45
2023/01/28 05:28:44;;;;;;;;;;;;;;;;;;5035523;28;2309;-46
2023/01/28 05:31:12;;;;;;;;;;;;;;;;;;5035887;28;1599;-47
2023/01/28 05:33:39;;;;;;;;;;;;;;;;;;5035075;28;1918;-45
2023/01/28 05:36:09;;;;;;;;;;;;;;;;;;5035493;28;1745;-44
2023/01/28 05:38:37;;;;;;;;;;;;;;;;;;5035245;28;1885;-45
2023/01/28 05:41:04;;;;;;;;;;;;;;;;;;5035466;28;1455;-43
2023/01/28 05:43:32;;;;;;;;;;;;;;;;;;5034601;28;1855;-42
2023/01/28 05:46:08;;;;;;;;;;;;;;;;;;5053196;28;1767;-44
2023/01/28 05:49:07;;;;;;;;;;;;;;;;;;5024962;28;1566;-42
2023/01/28 05:51:53;;;;;;;;;;;;;;;;;;5052739;28;1902;-44
2023/01/28 05:54:21;;;;;;;;;;;;;;;;;;5031669;28;2134;-43
2023/01/28 05:56:48;;;;;;;;;;;;;;;;;;5048265;28;1833;-44
2023/01/28 05:59:16;;;;;;;;;;;;;;;;;;5015440;28;2008;-43
2023/01/28 06:01:45;;;;;;;;;;;;;;;;;;5015371;28;1454;-41
2023/01/28 06:04:13;;;;;;;;;;;;;;;;;;5047906;28;1746;-43
2023/01/28 06:06:40;;;;;;;;;;;;;;;;;;5014938;28;2019;-42
2023/01/28 06:09:08;;;;;;;;;;;;;;;;;;5014923;28;1694;-46
2023/01/28 06:11:37;;;;;;;;;;;;;;;;;;5015251;28;2125;-45
2023/01/28 06:14:04;;;;;;;;;;;;;;;;;;5048302;28;1884;-49
2023/01/28 06:16:51;;;;;;;;;;;;;;;;;;5032491;28;1932;-45
2023/01/28 06:19:24;;;;;;;;;;;;;;;;;;5043264;28;2292;-46
2023/01/28 06:21:51;;;;;;;;;;;;;;;;;;5038140;28;2023;-43
2023/01/28 06:24:19;;;;;;;;;;;;;;;;;;5032669;28;1258;-42
2023/01/28 06:26:46;;;;;;;;;;;;;;;;;;5036555;28;2006;-43
2023/01/28 06:29:13;;;;;;;;;;;;;;;;;;5034266;28;1972;-46
2023/01/28 06:31:41;;;;;;;;;;;;;;;;;;5052788;28;1940;-42
2023/01/28 06:34:08;;;;;;;;;;;;;;;;;;5052090;28;1969;-44
2023/01/28 06:36:36;;;;;;;;;;;;;;;;;;5052464;28;1479;-41
2023/01/28 06:39:04;;;;;;;;;;;;;;;;;;5052113;28;1849;-43
2023/01/28 06:41:31;;;;;;;;;;;;;;;;;;5052132;28;2194;-45
2023/01/28 06:43:58;;;;;;;;;;;;;;;;;;5051886;28;2115;-41
2023/01/28 06:46:25;;;;;;;;;;;;;;;;;;5052032;28;1668;-42
2023/01/28 06:48:52;;;;;;;;;;;;;;;;;;5052503;28;2161;-43
2023/01/28 06:51:19;;;;;;;;;;;;;;;;;;5051858;28;2069;-47
2023/01/28 06:53:47;;;;;;;;;;;;;;;;;;5052044;28;2001;-42
2023/01/28 06:56:14;;;;;;;;;;;;;;;;;;5051716;28;2158;-43
2023/01/28 06:58:43;;;;;;;;;;;;;;;;;;5051786;28;2266;-40
2023/01/28 07:01:11;;;;;;;;;;;;;;;;;;5033924;28;1868;-41
2023/01/28 07:03:38;;;;;;;;;;;;;;;;;;5051866;28;2176;-43
2023/01/28 07:06:06;;;;;;;;;;;;;;;;;;5052005;28;1812;-44
2023/01/28 07:08:33;;;;;;;;;;;;;;;;;;5051515;28;1912;-46
2023/01/28 07:11:00;;;;;;;;;;;;;;;;;;5051561;28;1817;-42
2023/01/28 07:13:27;;;;;;;;;;;;;;;;;;5051377;28;1919;-45
2023/01/28 07:15:54;;;;;;;;;;;;;;;;;;5051363;28;2115;-45
2023/01/28 07:18:21;;;;;;;;;;;;;;;;;;5051590;28;1957;-42
2023/01/28 07:20:48;;;;;;;;;;;;;;;;;;5051269;28;1756;-43
2023/01/28 07:23:16;;;;;;;;;;;;;;;;;;5051497;28;2028;-45
2023/01/28 07:25:43;;;;;;;;;;;;;;;;;;5051338;28;2125;-42
2023/01/28 07:28:10;;;;;;;;;;;;;;;;;;5035493;28;1979;-45
2023/01/28 07:30:38;;;;;;;;;;;;;;;;;;5031711;28;1821;-45
2023/01/28 07:33:05;;;;;;;;;;;;;;;;;;5031126;28;2281;-44
2023/01/28 07:35:34;;;;;;;;;;;;;;;;;;5031221;28;2284;-45
2023/01/28 07:38:02;;;;;;;;;;;;;;;;;;5031308;28;2091;-45
2023/01/28 07:40:31;;;;;;;;;;;;;;;;;;5031100;28;1923;-44
2023/01/28 07:43:01;;;;;;;;;;;;;;;;;;5031242;28;2029;-48
2023/01/28 07:45:35;;;;;;;;;;;;;;;;;;5013223;28;1840;-46
2023/01/28 07:48:05;;;;;;;;;;;;;;;;;;5031127;28;1237;-44
2023/01/28 07:50:33;;;;;;;;;;;;;;;;;;5030980;28;2191;-44
2023/01/28 07:53:08;;;;;;;;;;;;;;;;;;5030860;28;1896;-44
2023/01/28 07:55:36;;;;;;;;;;;;;;;;;;5030903;28;1797;-45
2023/01/28 07:58:04;;;;;;;;;;;;;;;;;;5031053;28;1807;-43
2023/01/28 08:00:32;;;;;;;;;;;;;;;;;;5030980;28;1560;-43
2023/01/28 08:03:00;;;;;;;;;;;;;;;;;;5030908;28;1781;-44
2023/01/28 08:05:31;;;;;;;;;;;;;;;;;;5031182;28;1917;-45
2023/01/28 08:07:59;;;;;;;;;;;;;;;;;;5032864;28;1638;-45
2023/01/28 08:10:26;;;;;;;;;;;;;;;;;;5035201;28;1896;-46
2023/01/28 08:12:54;;;;;;;;;;;;;;;;;;5034916;28;1916;-45
2023/01/28 08:15:21;;;;;;;;;;;;;;;;;;5034987;28;2091;-45
2023/01/28 08:17:49;;;;;;;;;;;;;;;;;;5034853;28;2063;-45
2023/01/28 08:20:16;;;;;;;;;;;;;;;;;;5034653;28;2156;-45
2023/01/28 08:22:44;;;;;;;;;;;;;;;;;;5034865;28;1943;-47
2023/01/28 08:25:11;;;;;;;;;;;;;;;;;;5034919;28;2007;-44
2023/01/28 08:27:38;;;;;;;;;;;;;;;;;;5045890;28;1954;-45
2023/01/28 08:30:06;;;;;;;;;;;;;;;;;;5054618;28;1886;-43
2023/01/28 08:32:33;;;;;;;;;;;;;;;;;;5054451;28;1916;-46
2023/01/28 08:35:00;;;;;;;;;;;;;;;;;;5054817;28;2045;-43
2023/01/28 08:37:27;;;;;;;;;;;;;;;;;;5054660;28;1705;-44
2023/01/28 08:39:54;;;;;;;;;;;;;;;;;;5054409;28;2119;-43
2023/01/28 08:42:21;;;;;;;;;;;;;;;;;;5054304;28;1845;-44
2023/01/28 08:44:49;;;;;;;;;;;;;;;;;;5054302;28;1503;-43
2023/01/28 08:47:16;;;;;;;;;;;;;;;;;;5054429;28;2228;-44
2023/01/28 08:49:43;;;;;;;;;;;;;;;;;;5054175;28;1852;-43
2023/01/28 08:52:10;;;;;;;;;;;;;;;;;;5054052;28;2444;-43
2023/01/28 08:54:37;;;;;;;;;;;;;;;;;;5054160;28;1941;-43
2023/01/28 08:57:04;;;;;;;;;;;;;;;;;;5054039;28;2093;-44
2023/01/28 08:59:31;;;;;;;;;;;;;;;;;;5035749;28;2007;-46
2023/01/28 09:01:59;;;;;;;;;;;;;;;;;;5053791;28;1729;-44
2023/01/28 09:04:26;;;;;;;;;;;;;;;;;;5053762;28;1688;-47
2023/01/28 09:06:53;;;;;;;;;;;;;;;;;;5054296;28;1845;-45
2023/01/28 09:09:20;;;;;;;;;;;;;;;;;;5053805;28;1742;-45
2023/01/28 09:11:47;;;;;;;;;;;;;;;;;;5054377;28;1667;-43
2023/01/28 09:14:14;;;;;;;;;;;;;;;;;;5054063;28;1975;-45
2023/01/28 09:16:42;;;;;;;;;;;;;;;;;;5053589;28;1828;-46
2023/01/28 09:19:09;;;;;;;;;;;;;;;;;;5053943;28;1979;-41
2023/01/28 09:21:38;;;;;;;;;;;;;;;;;;5053547;28;2008;-44
2023/01/28 09:24:05;;;;;;;;;;;;;;;;;;5053629;28;2131;-44
2023/01/28 09:26:33;;;;;;;;;;;;;;;;;;5051481;28;1803;-43
2023/01/28 09:29:00;;;;;;;;;;;;;;;;;;5033419;28;1530;-46
2023/01/28 09:31:27;;;;;;;;;;;;;;;;;;5033413;28;1964;-46
2023/01/28 09:33:56;;;;;;;;;;;;;;;;;;5033221;28;1902;-44
2023/01/28 09:36:23;;;;;;;;;;;;;;;;;;5033574;28;1837;-40
2023/01/28 09:38:50;;;;;;;;;;;;;;;;;;5033544;28;1675;-44
2023/01/28 09:41:38;;;;;;;;;;;;;;;;;;5033522;28;2033;-43
2023/01/28 09:44:12;;;;;;;;;;;;;;;;;;5033232;28;1730;-44
2023/01/28 09:46:44;;;;;;;;;;;;;;;;;;5033150;28;1894;-45
2023/01/28 09:49:27;;;;;;;;;;;;;;;;;;5048263;28;2010;-45
2023/01/28 09:51:55;;;;;;;;;;;;;;;;;;5052938;28;2086;-43
2023/01/28 09:54:29;;;;;;;;;;;;;;;;;;5053164;28;1912;-40
2023/01/28 09:57:04;;;;;;;;;;;;;;;;;;5052794;28;1609;-47
2023/01/28 09:59:35;;;;;;;;;;;;;;;;;;5052819;28;2209;-45
2023/01/28 10:02:20;;;;;;;;;;;;;;;;;;5052841;28;1799;-46
2023/01/28 10:04:56;;;;;;;;;;;;;;;;;;5052673;28;2019;-45
2023/01/28 10:07:42;;;;;;;;;;;;;;;;;;5052878;28;1934;-41
2023/01/28 10:10:14;;;;;;;;;;;;;;;;;;5052865;28;1880;-45
2023/01/28 10:12:54;;;;;;;;;;;;;;;;;;5052451;28;2133;-43
2023/01/28 10:15:39;;;;;;;;;;;;;;;;;;5052772;28;1782;-47
2023/01/28 10:18:11;;;;;;;;;;;;;;;;;;5052552;28;2013;-45
2023/01/28 10:20:55;;;;;;;;;;;;;;;;;;5053236;28;1719;-43
2023/01/28 10:23:25;;;;;;;;;;;;;;;;;;5052488;28;1788;-43
2023/01/28 10:25:56;;;;;;;;;;;;;;;;;;5052571;28;1352;-46
2023/01/28 10:28:26;;;;;;;;;;;;;;;;;;5052802;28;1956;-42
2023/01/28 10:30:53;;;;;;;;;;;;;;;;;;5051697;28;2082;-46
2023/01/28 10:33:26;;;;;;;;;;;;;;;;;;5052132;28;2080;-44
2023/01/28 10:35:54;;;;;;;;;;;;;;;;;;5052456;28;2107;-42
2023/01/28 10:38:22;;;;;;;;;;;;;;;;;;5052448;28;1687;-47
2023/01/28 10:40:50;;;;;;;;;;;;;;;;;;5052184;28;1832;-42
2023/01/28 10:43:22;;;;;;;;;;;;;;;;;;5051986;28;1631;-46
2023/01/28 10:45:54;;;;;;;;;;;;;;;;;;5052187;28;1876;-41
2023/01/28 10:48:23;;;;;;;;;;;;;;;;;;5051927;28;1802;-47
2023/01/28 10:50:51;;;;;;;;;;;;;;;;;;5034118;28;2133;-48
2023/01/28 10:53:18;;;;;;;;;;;;;;;;;;5051935;28;1977;-46
2023/01/28 10:55:49;;;;;;;;;;;;;;;;;;5051900;28;1901;-46
2023/01/28 10:58:19;;;;;;;;;;;;;;;;;;5051718;28;1636;-48
2023/01/28 11:00:51;;;;;;;;;;;;;;;;;;5051821;28;1891;-43
2023/01/28 11:03:19;;;;;;;;;;;;;;;;;;5051591;28;1983;-44
2023/01/28 11:05:53;;;;;;;;;;;;;;;;;;5051585;28;1975;-49
2023/01/28 11:08:21;;;;;;;;;;;;;;;;;;5051536;28;2307;-44
2023/01/28 11:10:49;;;;;;;;;;;;;;;;;;5051604;28;2088;-49
2023/01/28 11:13:18;;;;;;;;;;;;;;;;;;5051396;28;2392;-45
2023/01/28 11:15:51;;;;;;;;;;;;;;;;;;5051461;28;1890;-48
2023/01/28 11:18:21;;;;;;;;;;;;;;;;;;5033981;28;1974;-46
2023/01/28 11:20:50;;;;;;;;;;;;;;;;;;5051192;28;1872;-46
2023/01/28 11:23:23;;;;;;;;;;;;;;;;;;5051275;28;1410;-46
2023/01/28 11:26:09;;;;;;;;;;;;;;;;;;5050958;28;2136;-43
2023/01/28 11:28:39;;;;;;;;;;;;;;;;;;5032005;28;1689;-47
2023/01/28 11:31:07;;;;;;;;;;;;;;;;;;5031234;28;1577;-46
2023/01/28 11:33:38;;;;;;;;;;;;;;;;;;5031123;28;2108;-47
2023/01/28 11:36:23;;;;;;;;;;;;;;;;;;5031175;28;1981;-42
2023/01/28 11:38:51;;;;;;;;;;;;;;;;;;5031175;28;1470;-44
2023/01/28 11:41:25;;;;;;;;;;;;;;;;;;5030615;28;1908;-41
2023/01/28 11:43:53;;;;;;;;;;;;;;;;;;5030979;28;2043;-43
2023/01/28 11:46:27;;;;;;;;;;;;;;;;;;5031176;28;2048;-44
2023/01/28 11:48:54;;;;;;;;;;;;;;;;;;5031361;28;1401;-40
2023/01/28 11:51:29;;;;;;;;;;;;;;;;;;5030967;28;1703;-46
2023/01/28 11:53:56;;;;;;;;;;;;;;;;;;5031252;28;2310;-46
2023/01/28 11:56:40;;;;;;;;;;;;;;;;;;5031229;28;1292;-42
2023/01/28 11:59:17;;;;;;;;;;;;;;;;;;5030957;28;1869;-45
2023/01/28 12:02:03;;;;;;;;;;;;;;;;;;5039841;28;1936;-42
2023/01/28 12:04:33;;;;;;;;;;;;;;;;;;5046105;28;1675;-45
2023/01/28 12:07:17;;;;;;;;;;;;;;;;;;5049326;28;2609;-44
2023/01/28 12:09:56;;;;;;;;;;;;;;;;;;5050205;28;1588;-41
2023/01/28 12:12:41;;;;;;;;;;;;;;;;;;5050787;28;1959;-43
2023/01/28 12:15:11;;;;;;;;;;;;;;;;;;5050762;28;1996;-48
2023/01/28 12:17:45;;;;;;;;;;;;;;;;;;5050755;28;1844;-47
2023/01/28 12:20:15;;;;;;;;;;;;;;;;;;5050601;28;1508;-49
2023/01/28 12:22:49;;;;;;;;;;;;;;;;;;5050454;28;2060;-41
2023/01/28 12:25:16;;;;;;;;;;;;;;;;;;5050629;28;2155;-42
2023/01/28 12:27:46;;;;;;;;;;;;;;;;;;5041620;28;2160;-42
2023/01/28 12:30:37;;;;;;;;;;;;;;;;;;5049934;28;1655;-41
2023/01/28 12:33:39;;;;;;;;;;;;;;;;;;5030406;28;1981;-44
2023/01/28 12:36:06;;;;;;;;;;;;;;;;;;5039683;28;1909;-47
2023/01/28 12:38:34;;;;;;;;;;;;;;;;;;5050314;28;1460;-44
2023/01/28 12:41:06;;;;;;;;;;;;;;;;;;5049971;28;1691;-40
2023/01/28 12:43:41;;;;;;;;;;;;;;;;;;5050648;28;1462;-46
2023/01/28 12:46:11;;;;;;;;;;;;;;;;;;5049881;28;1344;-47
2023/01/28 12:48:45;;;;;;;;;;;;;;;;;;5050551;28;1633;-44
2023/01/28 12:51:20;;;;;;;;;;;;;;;;;;5050162;28;1881;-39
2023/01/28 12:53:54;;;;;;;;;;;;;;;;;;5052048;28;2123;-42
2023/01/28 12:56:31;;;;;;;;;;;;;;;;;;5034058;28;1992;-48
2023/01/28 12:59:03;;;;;;;;;;;;;;;;;;5040810;28;1463;-42
2023/01/28 13:01:38;;;;;;;;;;;;;;;;;;5045821;28;1923;-44
2023/01/28 13:04:09;;;;;;;;;;;;;;;;;;5041189;28;1875;-43
2023/01/28 13:06:40;;;;;;;;;;;;;;;;;;5037293;28;1602;-44
2023/01/28 13:09:16;;;;;;;;;;;;;;;;;;5049119;28;2011;-41
2023/01/28 13:11:48;;;;;;;;;;;;;;;;;;5032349;28;1700;-44
2023/01/28 13:14:15;;;;;;;;;;;;;;;;;;5041939;28;1922;-41
2023/01/28 13:16:45;;;;;;;;;;;;;;;;;;5052467;28;1882;-45
2023/01/28 13:19:18;;;;;;;;;;;;;;;;;;5033530;28;1667;-47
2023/01/28 13:21:48;;;;;;;;;;;;;;;;;;5051102;28;2086;-39
2023/01/28 13:24:15;;;;;;;;;;;;;;;;;;5053673;28;1471;-42
2023/01/28 13:26:47;;;;;;;;;;;;;;;;;;5053147;28;1541;-43
2023/01/28 13:29:14;;;;;;;;;;;;;;;;;;5053463;28;2064;-43
2023/01/28 13:31:43;;;;;;;;;;;;;;;;;;5052408;28;1766;-43
2023/01/28 13:34:32;;;;;;;;;;;;;;;;;;5053434;28;2004;-41
2023/01/28 13:37:25;;;;;;;;;;;;;;;;;;5041095;28;2263;-43
2023/01/28 13:39:56;;;;;;;;;;;;;;;;;;5053229;28;2066;-45
2023/01/28 13:42:24;;;;;;;;;;;;;;;;;;5051959;28;1856;-42
2023/01/28 13:44:52;;;;;;;;;;;;;;;;;;5053159;28;1710;-43
2023/01/28 13:47:20;;;;;;;;;;;;;;;;;;5053083;28;1731;-45
2023/01/28 13:50:26;;;;;;;;;;;;;;;;;;5052731;28;1752;-43
2023/01/28 13:53:12;;;;;;;;;;;;;;;;;;4972092;28;1982;-48
2023/01/28 13:55:39;;;;;;;;;;;;;;;;;;4972037;28;1910;-41
2023/01/28 13:58:24;;;;;;;;;;;;;;;;;;5024419;28;1924;-44
2023/01/28 14:01:17;;;;;;;;;;;;;;;;;;5052838;28;2055;-43
2023/01/28 14:03:44;;;;;;;;;;;;;;;;;;5052797;28;2071;-44
2023/01/28 14:06:30;;;;;;;;;;;;;;;;;;5051651;28;1940;-43
2023/01/28 14:08:57;;;;;;;;;;;;;;;;;;5052767;28;1929;-48
2023/01/28 14:11:38;;;;;;;;;;;;;;;;;;5052533;28;1961;-46
2023/01/28 14:14:08;;;;;;;;;;;;;;;;;;5052761;28;1976;-48
2023/01/28 14:16:40;;;;;;;;;;;;;;;;;;5052334;28;1975;-41
2023/01/28 14:19:10;;;;;;;;;;;;;;;;;;5032612;28;1999;-41
2023/01/28 14:21:38;;;;;;;;;;;;;;;;;;5032501;28;1997;-40
2023/01/28 14:24:11;;;;;;;;;;;;;;;;;;5014945;28;2061;-43
2023/01/28 14:26:38;;;;;;;;;;;;;;;;;;5035128;28;1973;-41
2023/01/28 14:29:12;;;;;;;;;;;;;;;;;;5052159;28;1734;-44
2023/01/28 14:31:39;;;;;;;;;;;;;;;;;;5052107;28;1706;-44
2023/01/28 14:34:22;;;;;;;;;;;;;;;;;;5052240;28;1997;-41
2023/01/28 14:36:51;;;;;;;;;;;;;;;;;;5052211;28;1558;-45
2023/01/28 14:39:20;;;;;;;;;;;;;;;;;;5052028;28;2112;-41
2023/01/28 14:41:48;;;;;;;;;;;;;;;;;;5051979;28;1865;-42
2023/01/28 14:44:27;;;;;;;;;;;;;;;;;;5052175;28;1792;-48
2023/01/28 14:47:03;;;;;;;;;;;;;;;;;;5051558;28;2013;-41
2023/01/28 14:49:44;;;;;;;;;;;;;;;;;;5051912;28;1761;-46
2023/01/28 14:52:31;;;;;;;;;;;;;;;;;;5051585;28;1681;-41
2023/01/28 14:55:16;;;;;;;;;;;;;;;;;;5051767;28;1914;-40
2023/01/28 14:57:43;;;;;;;;;;;;;;;;;;5051685;28;1466;-46
2023/01/28 15:00:17;;;;;;;;;;;;;;;;;;5051713;28;2117;-42
2023/01/28 15:02:44;;;;;;;;;;;;;;;;;;5051570;28;1707;-46
2023/01/28 15:05:16;;;;;;;;;;;;;;;;;;5051749;28;1849;-41
2023/01/28 15:07:45;;;;;;;;;;;;;;;;;;5051620;28;1528;-44
2023/01/28 15:10:24;;;;;;;;;;;;;;;;;;5051640;28;2065;-44
2023/01/28 15:12:56;;;;;;;;;;;;;;;;;;5050911;28;1575;-47
2023/01/28 15:15:24;;;;;;;;;;;;;;;;;;5051366;28;1998;-42
2023/01/28 15:17:51;;;;;;;;;;;;;;;;;;5051337;28;2122;-41
2023/01/28 15:20:20;;;;;;;;;;;;;;;;;;5051327;28;2041;-41
2023/01/28 15:22:48;;;;;;;;;;;;;;;;;;5051444;28;1669;-43
2023/01/28 15:25:16;;;;;;;;;;;;;;;;;;5051203;28;941;-46
2023/01/28 15:27:43;;;;;;;;;;;;;;;;;;5051248;28;1812;-45
2023/01/28 15:30:27;;;;;;;;;;;;;;;;;;5051359;28;1569;-45
2023/01/28 15:32:58;;;;;;;;;;;;;;;;;;5051142;28;1514;-46
2023/01/28 15:35:25;;;;;;;;;;;;;;;;;;5051125;28;1911;-46
2023/01/28 15:37:53;;;;;;;;;;;;;;;;;;5050902;28;1837;-42
2023/01/28 15:40:22;;;;;;;;;;;;;;;;;;5050965;28;1903;-45
2023/01/28 15:42:50;;;;;;;;;;;;;;;;;;5050866;28;1860;-46
2023/01/28 15:45:19;;;;;;;;;;;;;;;;;;5051172;28;1980;-45
2023/01/28 15:47:47;;;;;;;;;;;;;;;;;;5050928;28;1840;-44
2023/01/28 15:50:22;;;;;;;;;;;;;;;;;;5050817;28;1871;-43
2023/01/28 15:52:50;;;;;;;;;;;;;;;;;;5050977;28;1642;-45
2023/01/28 15:55:38;;;;;;;;;;;;;;;;;;5050804;28;1925;-41
2023/01/28 15:58:28;;;;;;;;;;;;;;;;;;5050755;28;1880;-43
2023/01/28 16:01:08;;;;;;;;;;;;;;;;;;5041133;28;1452;-41
2023/01/28 16:03:38;;;;;;;;;;;;;;;;;;5050382;28;1906;-47
2023/01/28 16:06:32;;;;;;;;;;;;;;;;;;5050711;28;2171;-43
2023/01/28 16:09:06;;;;;;;;;;;;;;;;;;5048778;28;2035;-42
2023/01/28 16:11:43;;;;;;;;;;;;;;;;;;5050724;28;1849;-44
2023/01/28 16:14:32;;;;;;;;;;;;;;;;;;5050788;28;1987;-45
2023/01/28 16:17:00;;;;;;;;;;;;;;;;;;5050618;28;2260;-45
2023/01/28 16:19:37;;;;;;;;;;;;;;;;;;5050508;28;1988;-42
2023/01/28 16:22:05;;;;;;;;;;;;;;;;;;5050523;28;2295;-47
2023/01/28 16:24:35;;;;;;;;;;;;;;;;;;5050556;28;2038;-44
2023/01/28 16:27:17;;;;;;;;;;;;;;;;;;5050503;28;1720;-44
2023/01/28 16:29:44;;;;;;;;;;;;;;;;;;5054055;28;1939;-40
2023/01/28 16:32:34;;;;;;;;;;;;;;;;;;5054384;28;1917;-45
2023/01/28 16:35:04;;;;;;;;;;;;;;;;;;5054224;28;1903;-43
2023/01/28 16:37:31;;;;;;;;;;;;;;;;;;5037788;28;1799;-49
2023/01/28 16:39:59;;;;;;;;;;;;;;;;;;5034380;28;1955;-43
2023/01/28 16:42:31;;;;;;;;;;;;;;;;;;5034117;28;1486;-45
2023/01/28 16:44:58;;;;;;;;;;;;;;;;;;5034302;28;1898;-41
2023/01/28 16:47:25;;;;;;;;;;;;;;;;;;5034506;28;2013;-48
2023/01/28 16:49:53;;;;;;;;;;;;;;;;;;5016248;28;1702;-43
2023/01/28 16:52:20;;;;;;;;;;;;;;;;;;5034076;28;1748;-45
2023/01/28 16:54:47;;;;;;;;;;;;;;;;;;5033930;28;2019;-41
2023/01/28 16:57:20;;;;;;;;;;;;;;;;;;5034372;28;1885;-43
2023/01/28 16:59:47;;;;;;;;;;;;;;;;;;5034295;28;1216;-48
2023/01/28 17:02:15;;;;;;;;;;;;;;;;;;5036590;28;2275;-44
2023/01/28 17:04:43;;;;;;;;;;;;;;;;;;5053948;28;1748;-42
2023/01/28 17:07:10;;;;;;;;;;;;;;;;;;5054138;28;2230;-44
2023/01/28 17:09:37;;;;;;;;;;;;;;;;;;5053615;28;1980;-47
2023/01/28 17:12:05;;;;;;;;;;;;;;;;;;5053810;28;1896;-45
2023/01/28 17:14:32;;;;;;;;;;;;;;;;;;5053495;28;2080;-49
2023/01/28 17:16:59;;;;;;;;;;;;;;;;;;5035884;28;1597;-47
2023/01/28 17:19:26;;;;;;;;;;;;;;;;;;5053878;28;1967;-44
2023/01/28 17:21:53;;;;;;;;;;;;;;;;;;5053412;28;2114;-44
2023/01/28 17:24:21;;;;;;;;;;;;;;;;;;5053579;28;1838;-43
2023/01/28 17:26:51;;;;;;;;;;;;;;;;;;5035651;28;1969;-46
2023/01/28 17:29:18;;;;;;;;;;;;;;;;;;5053708;28;2101;-45
2023/01/28 17:31:46;;;;;;;;;;;;;;;;;;5053719;28;1590;-44
2023/01/28 17:34:13;;;;;;;;;;;;;;;;;;5053527;28;1845;-48
2023/01/28 17:36:40;;;;;;;;;;;;;;;;;;5053250;28;1975;-45
2023/01/28 17:39:08;;;;;;;;;;;;;;;;;;5052725;28;1330;-44
2023/01/28 17:41:35;;;;;;;;;;;;;;;;;;5052470;28;1846;-45
2023/01/28 17:44:03;;;;;;;;;;;;;;;;;;5053521;28;2073;-44
2023/01/28 17:46:30;;;;;;;;;;;;;;;;;;5053266;28;1489;-46
2023/01/28 17:48:58;;;;;;;;;;;;;;;;;;5053250;28;2234;-44
2023/01/28 17:51:28;;;;;;;;;;;;;;;;;;5053262;28;1865;-43
2023/01/28 17:53:56;;;;;;;;;;;;;;;;;;5053163;28;1923;-41
2023/01/28 17:56:24;;;;;;;;;;;;;;;;;;5053106;28;1984;-46
2023/01/28 17:58:52;;;;;;;;;;;;;;;;;;5052076;28;2042;-43
2023/01/28 18:01:20;;;;;;;;;;;;;;;;;;5053166;28;1945;-42